Houston, Texas
Traffic Map
Current Weather Conditions
Houston, Texas
Clear
Clear
17°
Feels Like: 17°
Wind Chill: 17° Ceiling: Unl
Heat Index: 17° Visibility: 10mi
Dew Point: 12° Wind: 5mph
Humidity: 75% Direction: 340° (NNW)
Pressure: 30.14in Gusts: 0mph
Raw Report DataKIAH 230453Z 34004KT 10SM CLR 17/12 A3014 RMK AO2 SLP206 T01670122
Traffic Incident Summary
Active as of:
Severity:
Category:
InformationThere was an issue retrieving the traffic information for this location. Please try a different location or try again shortly.
Advertisements